< Cyclone 202208 2022 Season
Cyclone 202210 (Tiffany)
General InformationDetailed Track InformationTrack Information on Google MapsList of All Images || ResourceGoogle EarthGE AnimationAtom FeedGeoJSON
Detalied Best Track Wind (Time Zone = UTC)
Year Month Day Hour Lat. Long. Wind (kt) Gust (kt) Direc. of Major Storm Axis Radius of Major Storm Axis (nm) Radius of Minor Storm Axis (nm) Direc. of Major Gale Axis Radius of Major Gale Axis (nm) Radius of Minor Gale Axis (nm) Image
2022 1 8 00 -11.8 147.5 25 45 symmetric - - symmetric - - Image
2022 1 8 06 -12.7 147.8 25 45 symmetric - - symmetric - - Image
2022 1 8 12 -13.0 147.9 30 50 symmetric - - symmetric - - Image
2022 1 8 18 -13.4 147.9 30 45 symmetric - - symmetric - - Image
2022 1 9 00 -13.8 147.3 30 45 symmetric - - symmetric - - Image
2022 1 9 06 -13.8 146.7 40 55 symmetric - - symmetric - - Image
2022 1 9 12 -13.8 145.9 50 70 symmetric - - symmetric - - Image
2022 1 9 18 -13.9 144.9 50 70 symmetric - - symmetric - - Image
2022 1 10 00 -14.1 144.2 50 70 symmetric - - symmetric - - Image
2022 1 10 06 -14.4 143.7 35 50 symmetric - - symmetric - - Image
2022 1 10 12 -14.6 142.8 30 45 symmetric - - symmetric - - Image
2022 1 10 18 -14.5 142.0 30 45 symmetric - - symmetric - - Image
2022 1 11 00 -14.4 141.1 30 45 symmetric - - symmetric - - Image
2022 1 11 06 -14.9 140.0 35 50 symmetric - - symmetric - - Image
2022 1 11 12 -14.7 138.2 45 65 symmetric - - symmetric - - Image
2022 1 11 18 -14.6 137.1 45 65 symmetric - - symmetric - - Image
2022 1 12 00 -14.5 135.6 40 55 symmetric - - symmetric - - Image
2022 1 12 06 -14.5 133.8 30 45 symmetric - - symmetric - - Image
2022 1 12 12 -14.8 132.6 20 45 symmetric - - symmetric - - Image
2022 1 12 18 -15.0 131.6 20 45 symmetric - - symmetric - - Image
2022 1 13 00 -15.3 130.5 20 35 symmetric - - symmetric - - Image
2022 1 13 06 -15.4 129.4 20 45 symmetric - - symmetric - - Image
2022 1 13 12 -15.7 127.9 20 35 symmetric - - symmetric - - Image
2022 1 13 18 -15.9 126.8 20 45 symmetric - - symmetric - - Image
2022 1 14 00 -16.1 126.2 20 45 symmetric - - symmetric - - Image
2022 1 14 06 -16.7 125.7 20 45 symmetric - - symmetric - - Image
2022 1 14 12 -17.0 125.4 20 45 symmetric - - symmetric - - Image
2022 1 14 18 -17.3 125.1 20 45 symmetric - - symmetric - - Image
2022 1 15 00 -17.7 125.0 20 45 symmetric - - symmetric - - Image
2022 1 15 06 -18.7 124.8 20 45 symmetric - - symmetric - - Image
2022 1 15 12 -19.6 125.0 20 45 symmetric - - symmetric - - Image
2022 1 15 18 -20.9 125.6 20 45 symmetric - - symmetric - - Image
2022 1 16 00 -21.9 126.4 25 45 symmetric - - symmetric - - Image
2022 1 16 06 -23.2 127.3 25 45 symmetric - - symmetric - - Image
2022 1 16 12 -24.0 127.9 25 45 symmetric - - symmetric - - Image
2022 1 16 18 -24.6 128.4 25 45 symmetric - - symmetric - - Image
2022 1 17 00 -25.2 129.0 25 45 symmetric - - symmetric - - Image
2022 1 17 06 -25.9 129.9 25 45 symmetric - - symmetric - - Image
< Cyclone 202208 2022 Season

Help